sensor_id;sensor_type;location;lat;lon;timestamp;P1;durP1;ratioP1;P2;durP2;ratioP2
80926;SDS011;70385;44.538;18.532;2023-12-14T00:02:18;77.82;;;33.30;;
80926;SDS011;70385;44.538;18.532;2023-12-14T00:04:44;80.88;;;33.08;;
80926;SDS011;70385;44.538;18.532;2023-12-14T00:07:10;90.70;;;35.83;;
80926;SDS011;70385;44.538;18.532;2023-12-14T00:09:39;83.32;;;36.78;;
80926;SDS011;70385;44.538;18.532;2023-12-14T00:12:06;95.75;;;36.97;;
80926;SDS011;70385;44.538;18.532;2023-12-14T00:14:31;117.05;;;40.50;;
80926;SDS011;70385;44.538;18.532;2023-12-14T00:16:57;139.43;;;44.38;;
80926;SDS011;70385;44.538;18.532;2023-12-14T00:19:24;132.13;;;43.13;;
80926;SDS011;70385;44.538;18.532;2023-12-14T00:21:50;113.97;;;40.60;;
80926;SDS011;70385;44.538;18.532;2023-12-14T00:24:19;111.45;;;38.67;;
80926;SDS011;70385;44.538;18.532;2023-12-14T00:26:45;114.75;;;36.53;;
80926;SDS011;70385;44.538;18.532;2023-12-14T00:29:20;95.38;;;33.75;;
80926;SDS011;70385;44.538;18.532;2023-12-14T00:31:50;76.85;;;28.55;;
80926;SDS011;70385;44.538;18.532;2023-12-14T00:34:16;73.45;;;26.55;;
80926;SDS011;70385;44.538;18.532;2023-12-14T00:36:42;65.00;;;23.15;;
80926;SDS011;70385;44.538;18.532;2023-12-14T00:39:08;59.58;;;22.50;;
80926;SDS011;70385;44.538;18.532;2023-12-14T00:41:36;54.53;;;21.13;;
80926;SDS011;70385;44.538;18.532;2023-12-14T00:44:02;57.92;;;21.20;;
80926;SDS011;70385;44.538;18.532;2023-12-14T00:46:28;56.67;;;21.08;;
80926;SDS011;70385;44.538;18.532;2023-12-14T00:48:54;36.25;;;16.63;;
80926;SDS011;70385;44.538;18.532;2023-12-14T00:51:20;39.10;;;15.27;;
80926;SDS011;70385;44.538;18.532;2023-12-14T00:53:46;37.50;;;14.90;;
80926;SDS011;70385;44.538;18.532;2023-12-14T00:56:12;31.98;;;15.77;;
80926;SDS011;70385;44.538;18.532;2023-12-14T00:58:39;35.03;;;15.68;;
80926;SDS011;70385;44.538;18.532;2023-12-14T01:01:05;42.90;;;18.08;;
80926;SDS011;70385;44.538;18.532;2023-12-14T01:03:31;34.90;;;15.65;;
80926;SDS011;70385;44.538;18.532;2023-12-14T01:05:58;38.72;;;16.73;;
80926;SDS011;70385;44.538;18.532;2023-12-14T01:08:24;43.03;;;16.08;;
80926;SDS011;70385;44.538;18.532;2023-12-14T01:10:50;42.00;;;17.20;;
80926;SDS011;70385;44.538;18.532;2023-12-14T01:13:17;46.42;;;18.38;;
80926;SDS011;70385;44.538;18.532;2023-12-14T01:15:43;46.38;;;17.92;;
80926;SDS011;70385;44.538;18.532;2023-12-14T01:18:09;57.03;;;18.65;;
80926;SDS011;70385;44.538;18.532;2023-12-14T01:20:34;48.42;;;17.48;;
80926;SDS011;70385;44.538;18.532;2023-12-14T01:23:00;49.78;;;16.80;;
80926;SDS011;70385;44.538;18.532;2023-12-14T01:25:26;51.08;;;17.45;;
80926;SDS011;70385;44.538;18.532;2023-12-14T01:27:52;45.50;;;17.13;;
80926;SDS011;70385;44.538;18.532;2023-12-14T01:30:18;44.28;;;15.30;;
80926;SDS011;70385;44.538;18.532;2023-12-14T01:32:43;34.53;;;13.15;;
80926;SDS011;70385;44.538;18.532;2023-12-14T01:35:09;43.35;;;13.02;;
80926;SDS011;70385;44.538;18.532;2023-12-14T01:37:35;27.55;;;11.38;;
80926;SDS011;70385;44.538;18.532;2023-12-14T01:40:01;30.00;;;10.88;;
80926;SDS011;70385;44.538;18.532;2023-12-14T01:42:27;32.08;;;10.57;;
80926;SDS011;70385;44.538;18.532;2023-12-14T01:44:53;27.48;;;9.75;;
80926;SDS011;70385;44.538;18.532;2023-12-14T01:47:18;22.55;;;8.93;;
80926;SDS011;70385;44.538;18.532;2023-12-14T01:49:46;23.70;;;8.25;;
80926;SDS011;70385;44.538;18.532;2023-12-14T01:52:11;19.20;;;7.20;;
80926;SDS011;70385;44.538;18.532;2023-12-14T01:54:37;19.92;;;6.70;;
80926;SDS011;70385;44.538;18.532;2023-12-14T01:57:03;20.02;;;6.05;;
80926;SDS011;70385;44.538;18.532;2023-12-14T01:59:29;19.52;;;7.28;;
80926;SDS011;70385;44.538;18.532;2023-12-14T02:01:55;17.73;;;6.20;;
80926;SDS011;70385;44.538;18.532;2023-12-14T02:04:23;15.75;;;5.78;;
80926;SDS011;70385;44.538;18.532;2023-12-14T02:06:51;14.73;;;5.97;;
80926;SDS011;70385;44.538;18.532;2023-12-14T02:09:18;14.93;;;7.32;;
80926;SDS011;70385;44.538;18.532;2023-12-14T02:11:43;16.30;;;6.03;;
80926;SDS011;70385;44.538;18.532;2023-12-14T02:14:09;15.60;;;6.25;;
80926;SDS011;70385;44.538;18.532;2023-12-14T02:16:36;13.15;;;5.95;;
80926;SDS011;70385;44.538;18.532;2023-12-14T02:19:04;14.52;;;4.47;;
80926;SDS011;70385;44.538;18.532;2023-12-14T02:21:30;11.90;;;4.85;;
80926;SDS011;70385;44.538;18.532;2023-12-14T02:23:56;14.23;;;5.05;;
80926;SDS011;70385;44.538;18.532;2023-12-14T02:26:22;13.75;;;6.20;;
80926;SDS011;70385;44.538;18.532;2023-12-14T02:28:48;13.25;;;5.70;;
80926;SDS011;70385;44.538;18.532;2023-12-14T02:31:14;18.08;;;6.55;;
80926;SDS011;70385;44.538;18.532;2023-12-14T02:33:40;13.13;;;5.70;;
80926;SDS011;70385;44.538;18.532;2023-12-14T02:36:06;12.88;;;5.95;;
80926;SDS011;70385;44.538;18.532;2023-12-14T02:38:32;10.20;;;5.47;;
80926;SDS011;70385;44.538;18.532;2023-12-14T02:40:58;13.07;;;5.93;;
80926;SDS011;70385;44.538;18.532;2023-12-14T02:43:24;18.20;;;7.57;;
80926;SDS011;70385;44.538;18.532;2023-12-14T02:45:50;18.42;;;7.45;;
80926;SDS011;70385;44.538;18.532;2023-12-14T02:48:16;17.70;;;7.10;;
80926;SDS011;70385;44.538;18.532;2023-12-14T02:50:42;17.10;;;7.53;;
80926;SDS011;70385;44.538;18.532;2023-12-14T02:53:08;18.63;;;8.90;;
80926;SDS011;70385;44.538;18.532;2023-12-14T02:55:34;19.17;;;8.23;;
80926;SDS011;70385;44.538;18.532;2023-12-14T02:57:59;19.17;;;8.88;;
80926;SDS011;70385;44.538;18.532;2023-12-14T03:00:25;18.88;;;9.50;;
80926;SDS011;70385;44.538;18.532;2023-12-14T03:02:51;21.95;;;8.35;;
80926;SDS011;70385;44.538;18.532;2023-12-14T03:05:17;17.73;;;7.50;;
80926;SDS011;70385;44.538;18.532;2023-12-14T03:07:43;23.15;;;8.60;;
80926;SDS011;70385;44.538;18.532;2023-12-14T03:10:09;16.38;;;6.75;;
80926;SDS011;70385;44.538;18.532;2023-12-14T03:12:36;18.95;;;7.93;;
80926;SDS011;70385;44.538;18.532;2023-12-14T03:15:01;19.65;;;9.18;;
80926;SDS011;70385;44.538;18.532;2023-12-14T03:17:28;16.17;;;7.82;;
80926;SDS011;70385;44.538;18.532;2023-12-14T03:19:54;19.42;;;7.75;;
80926;SDS011;70385;44.538;18.532;2023-12-14T03:22:19;13.48;;;6.25;;
80926;SDS011;70385;44.538;18.532;2023-12-14T03:24:45;17.38;;;6.47;;
80926;SDS011;70385;44.538;18.532;2023-12-14T03:27:11;15.80;;;7.18;;
80926;SDS011;70385;44.538;18.532;2023-12-14T03:29:37;20.88;;;9.63;;
80926;SDS011;70385;44.538;18.532;2023-12-14T03:32:03;15.10;;;6.43;;
80926;SDS011;70385;44.538;18.532;2023-12-14T03:34:29;11.10;;;6.25;;
80926;SDS011;70385;44.538;18.532;2023-12-14T03:36:55;11.65;;;6.15;;
80926;SDS011;70385;44.538;18.532;2023-12-14T03:39:20;14.10;;;6.82;;
80926;SDS011;70385;44.538;18.532;2023-12-14T03:41:46;17.20;;;7.07;;
80926;SDS011;70385;44.538;18.532;2023-12-14T03:44:12;17.10;;;6.80;;
80926;SDS011;70385;44.538;18.532;2023-12-14T03:46:38;14.18;;;6.38;;
80926;SDS011;70385;44.538;18.532;2023-12-14T03:49:04;15.27;;;6.07;;
80926;SDS011;70385;44.538;18.532;2023-12-14T03:51:29;16.40;;;6.55;;
80926;SDS011;70385;44.538;18.532;2023-12-14T03:53:58;10.30;;;5.57;;
80926;SDS011;70385;44.538;18.532;2023-12-14T03:56:25;16.75;;;8.18;;
80926;SDS011;70385;44.538;18.532;2023-12-14T03:58:51;14.35;;;6.75;;
80926;SDS011;70385;44.538;18.532;2023-12-14T04:01:17;14.05;;;6.60;;
80926;SDS011;70385;44.538;18.532;2023-12-14T04:03:46;11.02;;;5.97;;
80926;SDS011;70385;44.538;18.532;2023-12-14T04:06:13;14.80;;;6.30;;
80926;SDS011;70385;44.538;18.532;2023-12-14T04:08:40;34.05;;;13.80;;
80926;SDS011;70385;44.538;18.532;2023-12-14T04:11:07;57.85;;;23.00;;
80926;SDS011;70385;44.538;18.532;2023-12-14T04:13:33;20.52;;;10.88;;
80926;SDS011;70385;44.538;18.532;2023-12-14T04:15:59;16.75;;;7.72;;
80926;SDS011;70385;44.538;18.532;2023-12-14T04:18:26;18.75;;;10.60;;
80926;SDS011;70385;44.538;18.532;2023-12-14T04:20:51;25.77;;;13.48;;
80926;SDS011;70385;44.538;18.532;2023-12-14T04:23:17;40.55;;;17.02;;
80926;SDS011;70385;44.538;18.532;2023-12-14T04:25:44;45.90;;;22.50;;
80926;SDS011;70385;44.538;18.532;2023-12-14T04:28:10;38.72;;;20.08;;
80926;SDS011;70385;44.538;18.532;2023-12-14T04:30:36;38.47;;;19.08;;
80926;SDS011;70385;44.538;18.532;2023-12-14T04:33:01;21.27;;;11.73;;
80926;SDS011;70385;44.538;18.532;2023-12-14T04:35:27;20.80;;;11.90;;
80926;SDS011;70385;44.538;18.532;2023-12-14T04:37:53;24.30;;;12.77;;
80926;SDS011;70385;44.538;18.532;2023-12-14T04:40:19;32.25;;;15.70;;
80926;SDS011;70385;44.538;18.532;2023-12-14T04:42:45;40.72;;;15.80;;
80926;SDS011;70385;44.538;18.532;2023-12-14T04:45:10;27.65;;;13.27;;
80926;SDS011;70385;44.538;18.532;2023-12-14T04:47:36;35.63;;;18.23;;
80926;SDS011;70385;44.538;18.532;2023-12-14T04:50:03;26.30;;;13.90;;
80926;SDS011;70385;44.538;18.532;2023-12-14T04:52:32;44.50;;;22.83;;
80926;SDS011;70385;44.538;18.532;2023-12-14T04:54:58;56.25;;;24.70;;
80926;SDS011;70385;44.538;18.532;2023-12-14T04:57:24;52.85;;;27.67;;
80926;SDS011;70385;44.538;18.532;2023-12-14T04:59:49;44.92;;;21.98;;
80926;SDS011;70385;44.538;18.532;2023-12-14T05:02:15;54.78;;;24.73;;
80926;SDS011;70385;44.538;18.532;2023-12-14T05:04:41;200.93;;;74.07;;
80926;SDS011;70385;44.538;18.532;2023-12-14T05:07:07;103.40;;;46.55;;
80926;SDS011;70385;44.538;18.532;2023-12-14T05:09:32;97.43;;;40.13;;
80926;SDS011;70385;44.538;18.532;2023-12-14T05:11:58;83.93;;;37.60;;
80926;SDS011;70385;44.538;18.532;2023-12-14T05:14:24;112.80;;;54.90;;
80926;SDS011;70385;44.538;18.532;2023-12-14T05:16:50;67.13;;;33.03;;
80926;SDS011;70385;44.538;18.532;2023-12-14T05:19:16;76.95;;;38.25;;
80926;SDS011;70385;44.538;18.532;2023-12-14T05:21:42;74.70;;;38.75;;
80926;SDS011;70385;44.538;18.532;2023-12-14T05:24:09;68.93;;;36.67;;
80926;SDS011;70385;44.538;18.532;2023-12-14T05:26:35;100.40;;;49.35;;
80926;SDS011;70385;44.538;18.532;2023-12-14T05:29:00;111.97;;;58.60;;
80926;SDS011;70385;44.538;18.532;2023-12-14T05:31:26;103.82;;;50.63;;
80926;SDS011;70385;44.538;18.532;2023-12-14T05:33:52;78.93;;;39.95;;
80926;SDS011;70385;44.538;18.532;2023-12-14T05:36:18;62.65;;;33.72;;
80926;SDS011;70385;44.538;18.532;2023-12-14T05:38:50;54.72;;;29.48;;
80926;SDS011;70385;44.538;18.532;2023-12-14T05:41:16;67.82;;;34.35;;
80926;SDS011;70385;44.538;18.532;2023-12-14T05:43:42;69.28;;;39.00;;
80926;SDS011;70385;44.538;18.532;2023-12-14T05:46:07;196.68;;;88.80;;
80926;SDS011;70385;44.538;18.532;2023-12-14T05:48:33;137.05;;;70.07;;
80926;SDS011;70385;44.538;18.532;2023-12-14T05:51:00;123.20;;;76.95;;
80926;SDS011;70385;44.538;18.532;2023-12-14T05:53:26;85.20;;;45.10;;
80926;SDS011;70385;44.538;18.532;2023-12-14T05:55:52;89.53;;;47.30;;
80926;SDS011;70385;44.538;18.532;2023-12-14T05:58:28;78.32;;;40.28;;
80926;SDS011;70385;44.538;18.532;2023-12-14T06:00:53;92.10;;;45.97;;
80926;SDS011;70385;44.538;18.532;2023-12-14T06:03:22;102.32;;;50.53;;
80926;SDS011;70385;44.538;18.532;2023-12-14T06:05:47;137.93;;;53.17;;
80926;SDS011;70385;44.538;18.532;2023-12-14T06:08:13;129.32;;;50.95;;
80926;SDS011;70385;44.538;18.532;2023-12-14T06:10:47;98.32;;;42.72;;
80926;SDS011;70385;44.538;18.532;2023-12-14T06:13:34;99.88;;;37.67;;
80926;SDS011;70385;44.538;18.532;2023-12-14T06:16:27;85.00;;;33.42;;
80926;SDS011;70385;44.538;18.532;2023-12-14T06:18:53;83.63;;;35.17;;
80926;SDS011;70385;44.538;18.532;2023-12-14T06:21:18;94.47;;;34.80;;
80926;SDS011;70385;44.538;18.532;2023-12-14T06:23:44;99.35;;;39.63;;
80926;SDS011;70385;44.538;18.532;2023-12-14T06:26:12;97.00;;;38.13;;
80926;SDS011;70385;44.538;18.532;2023-12-14T06:28:39;99.57;;;39.22;;
80926;SDS011;70385;44.538;18.532;2023-12-14T06:31:05;117.18;;;42.03;;
80926;SDS011;70385;44.538;18.532;2023-12-14T06:33:32;120.72;;;45.40;;
80926;SDS011;70385;44.538;18.532;2023-12-14T06:36:02;194.07;;;71.30;;
80926;SDS011;70385;44.538;18.532;2023-12-14T06:38:29;123.20;;;43.63;;
80926;SDS011;70385;44.538;18.532;2023-12-14T06:40:56;119.13;;;43.03;;
80926;SDS011;70385;44.538;18.532;2023-12-14T06:43:22;106.65;;;41.38;;
80926;SDS011;70385;44.538;18.532;2023-12-14T06:45:48;118.70;;;38.55;;
80926;SDS011;70385;44.538;18.532;2023-12-14T06:48:14;111.90;;;37.35;;
80926;SDS011;70385;44.538;18.532;2023-12-14T06:50:39;110.97;;;37.72;;
80926;SDS011;70385;44.538;18.532;2023-12-14T06:53:05;95.95;;;35.40;;
80926;SDS011;70385;44.538;18.532;2023-12-14T06:55:31;95.78;;;34.90;;
80926;SDS011;70385;44.538;18.532;2023-12-14T06:57:57;104.85;;;39.92;;
80926;SDS011;70385;44.538;18.532;2023-12-14T07:00:22;112.60;;;39.53;;
80926;SDS011;70385;44.538;18.532;2023-12-14T07:02:49;121.38;;;42.92;;
80926;SDS011;70385;44.538;18.532;2023-12-14T07:05:14;125.13;;;42.08;;
80926;SDS011;70385;44.538;18.532;2023-12-14T07:07:41;136.93;;;46.20;;
80926;SDS011;70385;44.538;18.532;2023-12-14T07:10:06;143.65;;;51.40;;
80926;SDS011;70385;44.538;18.532;2023-12-14T07:12:32;156.75;;;62.10;;
80926;SDS011;70385;44.538;18.532;2023-12-14T07:14:58;164.85;;;67.07;;
80926;SDS011;70385;44.538;18.532;2023-12-14T07:17:24;191.50;;;74.95;;
80926;SDS011;70385;44.538;18.532;2023-12-14T07:19:51;159.57;;;64.80;;
80926;SDS011;70385;44.538;18.532;2023-12-14T07:22:17;106.63;;;40.83;;
80926;SDS011;70385;44.538;18.532;2023-12-14T07:24:45;74.47;;;28.83;;
80926;SDS011;70385;44.538;18.532;2023-12-14T07:27:11;60.97;;;25.17;;
80926;SDS011;70385;44.538;18.532;2023-12-14T07:29:37;51.75;;;21.42;;
80926;SDS011;70385;44.538;18.532;2023-12-14T07:32:03;51.40;;;20.63;;
80926;SDS011;70385;44.538;18.532;2023-12-14T07:34:33;30.10;;;15.27;;
80926;SDS011;70385;44.538;18.532;2023-12-14T07:36:59;35.83;;;17.60;;
80926;SDS011;70385;44.538;18.532;2023-12-14T07:39:25;38.42;;;17.83;;
80926;SDS011;70385;44.538;18.532;2023-12-14T07:41:52;43.22;;;20.38;;
80926;SDS011;70385;44.538;18.532;2023-12-14T07:44:17;30.95;;;16.20;;
80926;SDS011;70385;44.538;18.532;2023-12-14T07:46:43;39.22;;;19.77;;
80926;SDS011;70385;44.538;18.532;2023-12-14T07:49:09;46.67;;;31.15;;
80926;SDS011;70385;44.538;18.532;2023-12-14T07:51:35;36.85;;;22.20;;
80926;SDS011;70385;44.538;18.532;2023-12-14T07:54:01;50.92;;;24.95;;
80926;SDS011;70385;44.538;18.532;2023-12-14T07:56:33;59.25;;;28.65;;
80926;SDS011;70385;44.538;18.532;2023-12-14T07:59:01;44.70;;;22.55;;
80926;SDS011;70385;44.538;18.532;2023-12-14T08:01:31;68.35;;;29.38;;
80926;SDS011;70385;44.538;18.532;2023-12-14T08:03:57;54.38;;;22.25;;
80926;SDS011;70385;44.538;18.532;2023-12-14T08:06:23;54.63;;;25.17;;
80926;SDS011;70385;44.538;18.532;2023-12-14T08:08:49;69.80;;;27.35;;
80926;SDS011;70385;44.538;18.532;2023-12-14T08:11:15;99.55;;;38.72;;
80926;SDS011;70385;44.538;18.532;2023-12-14T08:13:43;106.90;;;38.63;;
80926;SDS011;70385;44.538;18.532;2023-12-14T08:16:09;99.95;;;36.10;;
80926;SDS011;70385;44.538;18.532;2023-12-14T08:18:36;101.13;;;35.22;;
80926;SDS011;70385;44.538;18.532;2023-12-14T08:21:04;95.95;;;35.55;;
80926;SDS011;70385;44.538;18.532;2023-12-14T08:23:30;113.85;;;40.30;;
80926;SDS011;70385;44.538;18.532;2023-12-14T08:25:56;118.90;;;40.97;;
80926;SDS011;70385;44.538;18.532;2023-12-14T08:28:24;130.32;;;44.47;;
80926;SDS011;70385;44.538;18.532;2023-12-14T08:30:50;83.07;;;33.42;;
80926;SDS011;70385;44.538;18.532;2023-12-14T08:33:17;55.83;;;26.73;;
80926;SDS011;70385;44.538;18.532;2023-12-14T08:35:46;41.30;;;21.15;;
80926;SDS011;70385;44.538;18.532;2023-12-14T08:38:12;55.40;;;26.70;;
80926;SDS011;70385;44.538;18.532;2023-12-14T08:40:38;41.55;;;21.35;;
80926;SDS011;70385;44.538;18.532;2023-12-14T08:43:04;44.88;;;24.40;;
80926;SDS011;70385;44.538;18.532;2023-12-14T08:45:30;43.03;;;23.70;;
80926;SDS011;70385;44.538;18.532;2023-12-14T08:47:56;38.45;;;20.27;;
80926;SDS011;70385;44.538;18.532;2023-12-14T08:50:22;33.67;;;18.77;;
80926;SDS011;70385;44.538;18.532;2023-12-14T08:52:48;28.45;;;15.27;;
80926;SDS011;70385;44.538;18.532;2023-12-14T08:55:14;27.17;;;15.48;;
80926;SDS011;70385;44.538;18.532;2023-12-14T08:57:39;33.20;;;18.30;;
80926;SDS011;70385;44.538;18.532;2023-12-14T09:00:05;32.08;;;18.38;;
80926;SDS011;70385;44.538;18.532;2023-12-14T09:02:32;24.10;;;14.82;;
80926;SDS011;70385;44.538;18.532;2023-12-14T09:04:58;27.05;;;14.30;;
80926;SDS011;70385;44.538;18.532;2023-12-14T09:07:24;27.42;;;15.80;;
80926;SDS011;70385;44.538;18.532;2023-12-14T09:09:51;33.13;;;17.73;;
80926;SDS011;70385;44.538;18.532;2023-12-14T09:12:17;24.13;;;14.23;;
80926;SDS011;70385;44.538;18.532;2023-12-14T09:14:43;21.33;;;12.30;;
80926;SDS011;70385;44.538;18.532;2023-12-14T09:17:08;18.65;;;11.02;;
80926;SDS011;70385;44.538;18.532;2023-12-14T09:19:34;20.42;;;11.98;;
80926;SDS011;70385;44.538;18.532;2023-12-14T09:22:03;22.02;;;10.70;;
80926;SDS011;70385;44.538;18.532;2023-12-14T09:24:29;21.13;;;12.07;;
80926;SDS011;70385;44.538;18.532;2023-12-14T09:26:56;27.50;;;15.13;;
80926;SDS011;70385;44.538;18.532;2023-12-14T09:29:22;20.98;;;12.32;;
80926;SDS011;70385;44.538;18.532;2023-12-14T09:31:51;18.88;;;10.55;;
80926;SDS011;70385;44.538;18.532;2023-12-14T09:34:16;17.48;;;9.73;;
80926;SDS011;70385;44.538;18.532;2023-12-14T09:36:43;17.35;;;11.55;;
80926;SDS011;70385;44.538;18.532;2023-12-14T09:39:08;21.35;;;12.20;;
80926;SDS011;70385;44.538;18.532;2023-12-14T09:41:38;35.55;;;19.40;;
80926;SDS011;70385;44.538;18.532;2023-12-14T09:44:05;21.10;;;12.32;;
80926;SDS011;70385;44.538;18.532;2023-12-14T09:46:36;27.15;;;13.07;;
80926;SDS011;70385;44.538;18.532;2023-12-14T09:49:03;19.17;;;11.40;;
80926;SDS011;70385;44.538;18.532;2023-12-14T09:51:30;21.73;;;11.98;;
80926;SDS011;70385;44.538;18.532;2023-12-14T09:53:57;20.10;;;11.52;;
80926;SDS011;70385;44.538;18.532;2023-12-14T09:56:26;17.92;;;9.30;;
80926;SDS011;70385;44.538;18.532;2023-12-14T09:58:53;14.93;;;8.25;;
80926;SDS011;70385;44.538;18.532;2023-12-14T10:01:22;15.68;;;9.70;;
80926;SDS011;70385;44.538;18.532;2023-12-14T10:03:49;15.27;;;8.57;;
80926;SDS011;70385;44.538;18.532;2023-12-14T10:06:18;21.33;;;12.27;;
80926;SDS011;70385;44.538;18.532;2023-12-14T10:08:53;27.08;;;12.98;;
80926;SDS011;70385;44.538;18.532;2023-12-14T10:11:22;34.97;;;15.88;;
80926;SDS011;70385;44.538;18.532;2023-12-14T10:13:48;35.95;;;18.48;;
80926;SDS011;70385;44.538;18.532;2023-12-14T10:16:27;26.15;;;14.40;;
80926;SDS011;70385;44.538;18.532;2023-12-14T10:18:57;26.20;;;13.23;;
80926;SDS011;70385;44.538;18.532;2023-12-14T10:21:25;26.30;;;13.73;;
80926;SDS011;70385;44.538;18.532;2023-12-14T10:23:52;28.10;;;15.25;;
80926;SDS011;70385;44.538;18.532;2023-12-14T10:26:24;30.67;;;17.05;;
80926;SDS011;70385;44.538;18.532;2023-12-14T10:28:51;29.75;;;16.52;;
80926;SDS011;70385;44.538;18.532;2023-12-14T10:31:18;36.33;;;17.63;;
80926;SDS011;70385;44.538;18.532;2023-12-14T10:33:45;31.85;;;17.65;;
80926;SDS011;70385;44.538;18.532;2023-12-14T10:36:15;29.50;;;16.98;;
80926;SDS011;70385;44.538;18.532;2023-12-14T10:38:45;29.50;;;16.63;;
80926;SDS011;70385;44.538;18.532;2023-12-14T10:41:14;34.35;;;18.77;;
80926;SDS011;70385;44.538;18.532;2023-12-14T10:43:43;28.17;;;15.35;;
80926;SDS011;70385;44.538;18.532;2023-12-14T10:46:10;33.75;;;17.75;;
80926;SDS011;70385;44.538;18.532;2023-12-14T10:48:36;47.65;;;24.35;;
80926;SDS011;70385;44.538;18.532;2023-12-14T10:51:02;52.25;;;27.42;;
80926;SDS011;70385;44.538;18.532;2023-12-14T10:53:31;40.97;;;21.50;;
80926;SDS011;70385;44.538;18.532;2023-12-14T10:55:59;38.88;;;19.67;;
80926;SDS011;70385;44.538;18.532;2023-12-14T10:58:32;46.45;;;20.58;;
80926;SDS011;70385;44.538;18.532;2023-12-14T11:01:15;47.72;;;22.08;;
80926;SDS011;70385;44.538;18.532;2023-12-14T11:07:50;33.67;;;17.67;;
80926;SDS011;70385;44.538;18.532;2023-12-14T11:10:22;34.47;;;17.85;;
80926;SDS011;70385;44.538;18.532;2023-12-14T11:12:55;34.65;;;17.58;;
80926;SDS011;70385;44.538;18.532;2023-12-14T11:15:29;36.40;;;17.25;;
80926;SDS011;70385;44.538;18.532;2023-12-14T11:20:57;34.30;;;18.05;;
80926;SDS011;70385;44.538;18.532;2023-12-14T11:23:35;38.67;;;18.60;;
80926;SDS011;70385;44.538;18.532;2023-12-14T11:26:08;31.05;;;16.38;;
80926;SDS011;70385;44.538;18.532;2023-12-14T11:28:36;32.72;;;15.60;;
80926;SDS011;70385;44.538;18.532;2023-12-14T11:31:11;33.15;;;16.25;;
80926;SDS011;70385;44.538;18.532;2023-12-14T11:33:37;41.42;;;18.95;;
80926;SDS011;70385;44.538;18.532;2023-12-14T11:36:04;59.33;;;24.65;;
80926;SDS011;70385;44.538;18.532;2023-12-14T11:38:31;31.85;;;14.30;;
80926;SDS011;70385;44.538;18.532;2023-12-14T11:40:59;53.03;;;24.98;;
80926;SDS011;70385;44.538;18.532;2023-12-14T11:43:25;61.22;;;25.23;;
80926;SDS011;70385;44.538;18.532;2023-12-14T11:45:54;118.18;;;37.88;;
80926;SDS011;70385;44.538;18.532;2023-12-14T11:48:23;154.98;;;44.90;;
80926;SDS011;70385;44.538;18.532;2023-12-14T11:50:49;143.65;;;44.25;;
80926;SDS011;70385;44.538;18.532;2023-12-14T11:53:15;86.57;;;32.03;;
80926;SDS011;70385;44.538;18.532;2023-12-14T11:55:42;110.03;;;37.08;;
80926;SDS011;70385;44.538;18.532;2023-12-14T11:58:09;108.15;;;36.75;;
80926;SDS011;70385;44.538;18.532;2023-12-14T12:00:42;50.38;;;24.33;;
80926;SDS011;70385;44.538;18.532;2023-12-14T12:10:14;62.17;;;25.88;;
80926;SDS011;70385;44.538;18.532;2023-12-14T12:12:40;31.67;;;16.08;;
80926;SDS011;70385;44.538;18.532;2023-12-14T12:15:06;31.02;;;16.52;;
80926;SDS011;70385;44.538;18.532;2023-12-14T12:17:32;27.30;;;14.43;;
80926;SDS011;70385;44.538;18.532;2023-12-14T12:22:58;41.83;;;19.35;;
80926;SDS011;70385;44.538;18.532;2023-12-14T12:25:28;38.38;;;20.20;;
80926;SDS011;70385;44.538;18.532;2023-12-14T12:27:57;49.03;;;22.85;;
80926;SDS011;70385;44.538;18.532;2023-12-14T12:30:27;65.07;;;29.38;;
80926;SDS011;70385;44.538;18.532;2023-12-14T12:33:00;56.47;;;26.98;;
80926;SDS011;70385;44.538;18.532;2023-12-14T12:35:26;56.10;;;27.13;;
80926;SDS011;70385;44.538;18.532;2023-12-14T12:37:55;48.55;;;25.75;;
80926;SDS011;70385;44.538;18.532;2023-12-14T12:47:18;59.65;;;30.88;;
80926;SDS011;70385;44.538;18.532;2023-12-14T12:49:44;64.30;;;30.15;;
80926;SDS011;70385;44.538;18.532;2023-12-14T12:52:10;60.20;;;28.92;;
80926;SDS011;70385;44.538;18.532;2023-12-14T12:54:36;50.65;;;24.23;;
80926;SDS011;70385;44.538;18.532;2023-12-14T12:57:01;55.80;;;25.20;;
80926;SDS011;70385;44.538;18.532;2023-12-14T12:59:30;39.20;;;20.45;;
80926;SDS011;70385;44.538;18.532;2023-12-14T13:01:56;39.28;;;22.70;;
80926;SDS011;70385;44.538;18.532;2023-12-14T13:04:23;43.20;;;21.58;;
80926;SDS011;70385;44.538;18.532;2023-12-14T13:09:48;37.55;;;20.17;;
80926;SDS011;70385;44.538;18.532;2023-12-14T13:12:15;27.50;;;16.00;;
80926;SDS011;70385;44.538;18.532;2023-12-14T13:14:42;25.20;;;14.52;;
80926;SDS011;70385;44.538;18.532;2023-12-14T13:17:08;15.50;;;8.70;;
80926;SDS011;70385;44.538;18.532;2023-12-14T13:19:33;16.30;;;9.20;;
80926;SDS011;70385;44.538;18.532;2023-12-14T13:21:59;18.15;;;9.82;;
80926;SDS011;70385;44.538;18.532;2023-12-14T13:24:28;17.85;;;11.75;;
80926;SDS011;70385;44.538;18.532;2023-12-14T13:26:58;16.98;;;10.45;;
80926;SDS011;70385;44.538;18.532;2023-12-14T13:29:26;16.10;;;10.05;;
80926;SDS011;70385;44.538;18.532;2023-12-14T13:31:52;16.45;;;9.05;;
80926;SDS011;70385;44.538;18.532;2023-12-14T13:34:17;23.88;;;12.98;;
80926;SDS011;70385;44.538;18.532;2023-12-14T13:36:43;45.08;;;17.73;;
80926;SDS011;70385;44.538;18.532;2023-12-14T13:39:15;58.58;;;22.00;;
80926;SDS011;70385;44.538;18.532;2023-12-14T13:41:41;55.90;;;22.35;;
80926;SDS011;70385;44.538;18.532;2023-12-14T13:46:39;49.72;;;23.20;;
80926;SDS011;70385;44.538;18.532;2023-12-14T13:49:08;47.13;;;21.98;;
80926;SDS011;70385;44.538;18.532;2023-12-14T13:54:04;39.80;;;21.02;;
80926;SDS011;70385;44.538;18.532;2023-12-14T13:59:24;31.02;;;18.63;;
80926;SDS011;70385;44.538;18.532;2023-12-14T14:04:41;32.28;;;18.63;;
80926;SDS011;70385;44.538;18.532;2023-12-14T14:07:07;31.25;;;18.90;;
80926;SDS011;70385;44.538;18.532;2023-12-14T14:09:34;34.90;;;20.83;;
80926;SDS011;70385;44.538;18.532;2023-12-14T14:14:45;35.60;;;20.35;;
80926;SDS011;70385;44.538;18.532;2023-12-14T14:17:11;39.88;;;20.27;;
80926;SDS011;70385;44.538;18.532;2023-12-14T14:22:13;43.30;;;23.98;;
80926;SDS011;70385;44.538;18.532;2023-12-14T14:24:45;37.40;;;23.50;;
80926;SDS011;70385;44.538;18.532;2023-12-14T14:27:11;40.78;;;23.95;;
80926;SDS011;70385;44.538;18.532;2023-12-14T14:29:40;39.35;;;23.10;;
80926;SDS011;70385;44.538;18.532;2023-12-14T14:32:06;35.78;;;22.38;;
80926;SDS011;70385;44.538;18.532;2023-12-14T14:34:32;33.03;;;20.10;;
80926;SDS011;70385;44.538;18.532;2023-12-14T14:36:58;37.80;;;22.48;;
80926;SDS011;70385;44.538;18.532;2023-12-14T14:39:26;54.13;;;27.92;;
80926;SDS011;70385;44.538;18.532;2023-12-14T14:41:52;56.45;;;28.65;;
80926;SDS011;70385;44.538;18.532;2023-12-14T14:44:18;53.95;;;29.48;;
80926;SDS011;70385;44.538;18.532;2023-12-14T14:46:44;65.55;;;35.90;;
80926;SDS011;70385;44.538;18.532;2023-12-14T14:49:10;46.97;;;25.90;;
80926;SDS011;70385;44.538;18.532;2023-12-14T14:51:35;49.72;;;27.08;;